Argonne, IL

8:23 AM CST on January 29, 2015 (GMT -0600)
Bolingbrook - Royce Road | Change Station
CLOSE
Current Station
Personal Weather Station
Location: Bolingbrook, IL
Elevation: 653 ft
Nearby Weather Stations

Elev 653 ft 41.72 °N, 88.07 °W | Updated 58 minutes ago

Overcast
Overcast
35.7 °F
Feels Like 36 °F
N
2.8
Wind Variable Wind from NW
Gusts 2.8 mph

Today
High -- | Low -- °F
--% Chance of Precip.
Yesterday
High -- | Low -- °F
Precip. -- in
7:07 AM 5:03 PM
Waxing Gibbous, 74% visible
Pressure 29.78 in
Visibility 10.0 miles
Clouds Overcast 1800 ft
Windchill 36 °F
Dew Point 31 °F
Humidity 82%
Rainfall 0.00 in
Snow Depth Not available.
UV 0 out of 12
Pollen .10 out of 12
Air Quality Not available.
Flu Activity Not available.
METAR KLOT 291355Z AUTO 34015G20KT 10SM OVC018 02/M01 A2978 RMK AO2 T00151013

More Conditions Fewer Conditions

Pressure 29.78 in
Visibility 10.0 miles
Clouds Overcast 1800 ft
Windchill 36 °F
Dew Point 31 °F
Humidity 82%
Rainfall 0.00 in
Snow Depth Not available.
UV 0 out of 12
Pollen .10 out of 12
Air Quality Not available.
Flu Activity Not available.
METAR KLOT 291355Z AUTO 34015G20KT 10SM OVC018 02/M01 A2978 RMK AO2 T00151013

More Conditions Fewer Conditions

10-Day Weather Forecast

Almanac

Astronomy

Jan. 29, 2015 Rise Set
Actual Time
Civil Twilight
Nautical Twilight
Astronomical Twilight
Moon
Length of Visible Light
Length of Day
Tomorrow will be .
, % of the Moon is Illuminated

Today's Extremes

State Highs State Lows

Community

WunderPhotos

Upload Photos

1,791,434 photos uploaded!

WunderBlogs® & News

Nearby

Air Quality

  Air Quality AQ Index Pollutant
Not available.

Snow Depth

Station Depth Elevation

Earthquake Activity

City Distance Mag. Time & Date
Minimum magnitude displayed is 2.5.

Coastal Water Temperatures

Place Temperature

Nearby Weather Stations